Albertville, Wisconsin
Current Conditions -  °F | °C
As of 5:55 PM on Wednesday 28 Jan 2015 (Local Time) from KLUM Reporting Station
Haze Haze  
Wind Chill: -3°   Ceiling: 2500
Heat Index:   Visibility: 5mi
Dew Point: -3°   Wind: 5mph
Humidity: 83%   Direction: 100°E
Pressure: 29.84"   Gusts: NA
Location:  45.0099°N, 91.7075°W
Report Text: KLUM 282355Z AUTO 10004KT 5SM HZ SCT019 BKN025 00/M03 A2984 RMK AO2 T10051031 11001 21019
Loading
Personal Weather Stations






























Interactive Weather Map New forecast layout! Learn more

10-Day Weather Forecast

Advertisements
Track Severe Weather on mobile